Time;durP1;ratioP1;P1;durP2;ratioP2;P2;SDS_P1;SDS_P2;PMS_P1;PMS_P2;Temp;Humidity;BMP_temperature;BMP_pressure;BME280_temperature;BME280_humidity;BME280_pressure;Samples;Min_cycle;Max_cycle;Signal;HPM_P1;HPM_P2
2022/12/26 00:24:45;;;;;;;15.60;2.28;;;;;;;-1.02;99.85;100362.47;4872687;28;20052;-56
2022/12/26 00:27:29;;;;;;;11.63;2.67;;;;;;;-1.00;100.00;100361.75;4853504;28;20247;-57
2022/12/26 00:30:22;;;;;;;10.50;2.30;;;;;;;-0.97;100.00;100366.09;4776582;29;20048;-56
2022/12/26 00:33:07;;;;;;;18.13;2.85;;;;;;;-0.97;100.00;100361.84;4778169;28;20348;-58
2022/12/26 00:35:54;;;;;;;11.57;1.95;;;;;;;-1.04;100.00;100367.59;4770374;28;20108;-57
2022/12/26 00:39:05;;;;;;;13.35;2.20;;;;;;;-1.01;100.00;100370.25;4834342;28;20074;-57
2022/12/26 00:42:08;;;;;;;12.75;2.30;;;;;;;-1.00;100.00;100381.34;4772128;29;20054;-57
2022/12/26 00:45:03;;;;;;;6.63;1.52;;;;;;;-1.11;100.00;100363.94;4790686;28;20051;-59
2022/12/26 00:47:50;;;;;;;9.15;1.73;;;;;;;-1.04;100.00;100389.78;4800902;29;20043;-57
2022/12/26 00:53:32;;;;;;;10.70;1.95;;;;;;;-1.03;100.00;100387.25;4790828;29;20039;-59
2022/12/26 00:56:11;;;;;;;12.20;2.45;;;;;;;-1.03;100.00;100392.41;4795586;28;20142;-53
2022/12/26 00:59:04;;;;;;;14.77;2.70;;;;;;;-1.08;100.00;100397.38;4751578;28;20357;-58
2022/12/26 01:01:49;;;;;;;7.78;1.90;;;;;;;-1.11;100.00;100399.84;4852680;28;20049;-57
2022/12/26 01:04:59;;;;;;;13.07;2.50;;;;;;;-1.12;100.00;100402.38;4854941;28;20423;-59
2022/12/26 01:07:50;;;;;;;17.67;2.38;;;;;;;-1.21;100.00;100391.81;4854212;28;20635;-59
2022/12/26 01:10:49;;;;;;;10.18;1.83;;;;;;;-1.14;100.00;100409.13;4831486;28;20118;-57
2022/12/26 01:13:45;;;;;;;13.85;2.20;;;;;;;-1.14;100.00;100414.25;4822187;28;20051;-58
2022/12/26 01:16:32;;;;;;;9.43;2.00;;;;;;;-1.13;100.00;100418.56;4768647;29;20040;-59
2022/12/26 01:22:45;;;;;;;11.80;2.33;;;;;;;-1.17;100.00;100403.91;4785043;29;20056;-59
2022/12/26 01:25:29;;;;;;;14.52;2.50;;;;;;;-1.07;100.00;100416.22;4801417;28;20815;-59
2022/12/26 01:45:55;;;;;;;11.30;2.05;;;;;;;-1.37;100.00;100373.34;4824284;28;20601;-56
2022/12/26 01:52:09;;;;;;;7.55;1.83;;;;;;;-0.93;100.00;100420.06;4807013;28;20098;-58
2022/12/26 01:55:03;;;;;;;9.25;2.10;;;;;;;-0.78;99.55;100423.97;4835869;28;20083;-58
2022/12/26 01:57:51;;;;;;;6.57;1.52;;;;;;;-0.69;99.19;100424.28;4879627;28;20042;-58
2022/12/26 02:00:53;;;;;;;10.48;1.88;;;;;;;-0.73;98.11;100422.41;4857168;28;20061;-59
2022/12/26 02:06:58;;;;;;;6.28;1.60;;;;;;;-0.70;97.15;100422.50;4767534;29;20099;-57
2022/12/26 02:09:35;;;;;;;10.60;1.90;;;;;;;-0.64;96.45;100427.00;4819723;28;20081;-58
2022/12/26 02:12:37;;;;;;;10.38;2.60;;;;;;;-0.60;95.97;100423.66;4810470;28;20101;-57
2022/12/26 02:15:29;;;;;;;12.27;2.53;;;;;;;-0.55;95.07;100417.88;4815224;28;20111;-59
2022/12/26 02:18:10;;;;;;;9.18;2.17;;;;;;;-0.46;94.31;100412.16;4760224;28;20053;-58
2022/12/26 02:21:06;;;;;;;9.02;2.17;;;;;;;-0.35;93.87;100408.22;4784866;28;20120;-58
2022/12/26 02:24:37;;;;;;;11.48;2.33;;;;;;;-0.36;92.76;100408.16;4805282;28;20580;-59
2022/12/26 02:27:44;;;;;;;5.50;2.22;;;;;;;-0.38;92.88;100414.94;4801710;28;20043;-59
2022/12/26 02:30:45;;;;;;;10.27;2.10;;;;;;;-0.34;93.34;100421.91;4782839;28;20055;-59
2022/12/26 02:33:38;;;;;;;6.85;1.52;;;;;;;-0.43;92.85;100387.41;4808582;28;20059;-56
2022/12/26 02:36:37;;;;;;;3.72;1.17;;;;;;;-0.29;92.91;100425.50;4812211;28;20055;-54
2022/12/26 02:39:22;;;;;;;14.95;2.10;;;;;;;-0.39;92.27;100415.78;4831212;28;20657;-58
2022/12/26 02:48:41;;;;;;;11.07;1.40;;;;;;;-0.24;91.79;100413.66;4862244;28;20109;-60
2022/12/26 03:13:32;;;;;;;10.02;2.38;;;;;;;-0.81;92.76;100399.09;4861328;28;20078;-59
2022/12/26 03:19:32;;;;;;;1.92;1.27;;;;;;;-0.77;92.98;100410.34;4853352;28;20046;-59
2022/12/26 03:28:10;;;;;;;5.97;1.40;;;;;;;-0.76;92.35;100422.31;4858026;28;20092;-59
2022/12/26 03:30:53;;;;;;;6.50;2.35;;;;;;;-0.69;92.20;100431.97;4841395;28;20402;-57
2022/12/26 04:47:08;;;;;;;5.25;1.45;;;;;;;-1.17;89.99;100488.53;4862890;28;20058;-60
2022/12/26 04:52:59;;;;;;;4.88;1.40;;;;;;;-1.21;91.07;100495.22;4858694;28;20054;-59
2022/12/26 04:55:48;;;;;;;4.82;1.40;;;;;;;-1.22;89.97;100508.88;4857320;28;20042;-62
2022/12/26 04:58:33;;;;;;;9.23;1.60;;;;;;;-1.20;90.49;100501.22;4848685;28;20107;-62
2022/12/26 05:13:45;;;;;;;9.05;1.70;;;;;;;-1.28;91.95;100523.16;4853002;28;20050;-64
2022/12/26 05:29:02;;;;;;;5.95;1.10;;;;;;;-1.74;92.36;100481.38;4866121;28;20077;-62
2022/12/26 05:31:56;;;;;;;3.50;1.35;;;;;;;-1.73;92.31;100499.34;4850649;28;20056;-60
2022/12/26 05:34:57;;;;;;;9.40;1.50;;;;;;;-1.59;92.38;100534.88;4806832;28;20121;-62
2022/12/26 05:37:55;;;;;;;2.90;1.33;;;;;;;-1.56;92.14;100558.03;4846541;28;20088;-63
2022/12/26 05:40:54;;;;;;;1.85;1.00;;;;;;;-1.59;92.25;100553.69;4841354;28;20540;-61
2022/12/26 05:44:01;;;;;;;2.35;1.08;;;;;;;-1.62;92.54;100533.06;4848989;28;20049;-64
2022/12/26 05:46:53;;;;;;;4.20;1.30;;;;;;;-1.64;92.87;100554.34;4836971;28;20303;-63
2022/12/26 05:49:30;;;;;;;2.95;1.10;;;;;;;-1.65;92.93;100547.44;4868623;28;20050;-62
2022/12/26 05:52:16;;;;;;;4.72;1.02;;;;;;;-1.68;93.30;100552.47;4829185;28;20054;-60
2022/12/26 06:01:21;;;;;;;3.35;1.13;;;;;;;-1.68;93.72;100567.84;4768526;29;20121;-63
2022/12/26 06:04:19;;;;;;;4.50;0.98;;;;;;;-1.69;93.64;100571.22;4764097;29;20059;-64
2022/12/26 06:07:13;;;;;;;4.13;1.10;;;;;;;-1.73;93.83;100576.22;4795483;29;20164;-63
2022/12/26 06:10:09;;;;;;;2.13;1.00;;;;;;;-1.85;94.98;100560.38;4777516;29;20229;-62
2022/12/26 06:12:42;;;;;;;6.10;1.52;;;;;;;-1.99;95.00;100554.72;4792258;29;20045;-62
2022/12/26 06:15:37;;;;;;;3.58;1.25;;;;;;;-1.87;96.09;100585.06;4787620;29;20039;-62
2022/12/26 06:18:31;;;;;;;6.15;1.40;;;;;;;-1.89;96.81;100589.25;4784676;29;20424;-63
2022/12/26 06:24:00;;;;;;;3.78;1.20;;;;;;;-1.98;97.44;100594.00;4727958;29;20043;-62
2022/12/26 06:26:44;;;;;;;3.55;1.02;;;;;;;-2.00;97.82;100596.53;4797519;29;20044;-61
2022/12/26 06:29:27;;;;;;;4.85;1.00;;;;;;;-2.09;97.70;100587.59;4809679;29;20164;-62
2022/12/26 06:32:13;;;;;;;1.73;1.10;;;;;;;-2.03;98.06;100611.75;4782111;29;20043;-61
2022/12/26 06:35:18;;;;;;;4.40;1.10;;;;;;;-2.27;97.44;100575.81;4795886;28;20049;-61
2022/12/26 06:38:05;;;;;;;6.00;1.08;;;;;;;-2.04;97.47;100615.13;4852706;28;20046;-61
2022/12/26 06:43:44;;;;;;;3.72;1.25;;;;;;;-2.07;96.40;100609.00;4820477;28;20077;-61
2022/12/26 06:46:44;;;;;;;7.20;1.35;;;;;;;-2.07;96.61;100603.88;4854624;28;20049;-61
2022/12/26 06:49:25;;;;;;;5.53;1.52;;;;;;;-2.07;96.44;100611.56;4801044;28;20145;-62
2022/12/26 06:52:10;;;;;;;7.38;1.38;;;;;;;-2.09;96.43;100602.97;4857771;28;20049;-61
2022/12/26 06:54:59;;;;;;;6.13;1.27;;;;;;;-2.10;96.21;100614.00;4854941;28;20057;-62
2022/12/26 06:57:44;;;;;;;8.00;1.65;;;;;;;-2.09;95.54;100613.22;4788876;28;20119;-60
2022/12/26 07:03:56;;;;;;;2.55;1.00;;;;;;;-2.08;95.22;100607.25;4825649;28;20058;-62
2022/12/26 07:06:56;;;;;;;4.78;1.10;;;;;;;-2.08;95.18;100605.56;4885088;28;20049;-60
2022/12/26 07:10:07;;;;;;;2.67;1.10;;;;;;;-2.07;94.93;100609.00;4807207;28;20038;-62
2022/12/26 07:12:57;;;;;;;1.65;0.90;;;;;;;-2.09;94.85;100610.66;4869313;28;20515;-60
2022/12/26 07:15:50;;;;;;;5.22;1.48;;;;;;;-2.13;94.74;100609.63;4874450;28;20046;-61
2022/12/26 07:18:53;;;;;;;5.53;1.33;;;;;;;-2.12;94.62;100615.63;4869704;28;20053;-61
2022/12/26 07:21:40;;;;;;;1.63;1.20;;;;;;;-2.15;94.82;100616.38;4805681;28;20089;-61
2022/12/26 07:24:32;;;;;;;2.88;0.90;;;;;;;-2.23;94.36;100602.41;4797178;28;20055;-62
2022/12/26 07:27:20;;;;;;;4.80;1.58;;;;;;;-2.14;94.58;100617.28;4829802;28;20054;-62
2022/12/26 07:30:11;;;;;;;4.00;1.13;;;;;;;-2.13;94.75;100619.00;4838145;28;20137;-59
2022/12/26 07:32:58;;;;;;;2.72;1.00;;;;;;;-2.20;94.63;100616.22;4827361;28;20464;-59
2022/12/26 07:35:50;;;;;;;2.20;1.05;;;;;;;-2.12;94.13;100613.97;4811172;28;20058;-61
2022/12/26 07:44:53;;;;;;;1.92;0.98;;;;;;;-2.01;93.13;100619.50;4825434;28;20068;-61
2022/12/26 07:47:48;;;;;;;3.13;1.02;;;;;;;-1.97;92.63;100611.16;4840255;28;20041;-60
2022/12/26 07:50:30;;;;;;;5.45;1.20;;;;;;;-1.97;92.74;100617.13;4841858;28;20539;-61
2022/12/26 07:53:20;;;;;;;4.20;1.30;;;;;;;-1.97;92.75;100621.38;4853308;28;21046;-60
2022/12/26 07:59:10;;;;;;;4.60;1.40;;;;;;;-1.97;92.98;100631.63;4872359;28;20103;-60
2022/12/26 08:01:59;;;;;;;2.13;1.00;;;;;;;-2.02;93.63;100628.88;4862489;28;20066;-61
2022/12/26 08:05:01;;;;;;;4.78;1.25;;;;;;;-2.29;94.48;100587.69;4859549;28;20190;-60
2022/12/26 08:07:53;;;;;;;5.43;1.20;;;;;;;-2.08;95.02;100623.50;4855484;28;20058;-60
2022/12/26 08:13:28;;;;;;;8.75;2.78;;;;;;;-2.19;95.74;100615.38;4840828;28;20066;-59
2022/12/26 08:16:13;;;;;;;9.20;3.20;;;;;;;-2.13;95.69;100629.25;4850761;28;20065;-60
2022/12/26 08:19:02;;;;;;;5.75;1.60;;;;;;;-2.13;95.94;100621.56;4845993;28;20061;-60
2022/12/26 08:21:41;;;;;;;5.32;1.73;;;;;;;-2.18;96.58;100617.13;4849156;28;20057;-59
2022/12/26 08:24:29;;;;;;;6.53;1.48;;;;;;;-2.20;96.61;100623.91;4841956;28;20054;-60
2022/12/26 08:27:10;;;;;;;3.92;1.52;;;;;;;-2.25;96.55;100620.25;4858262;28;20054;-60
2022/12/26 08:36:04;;;;;;;7.20;1.50;;;;;;;-2.21;96.30;100640.03;4842826;28;20053;-60
2022/12/26 08:38:44;;;;;;;2.40;1.02;;;;;;;-2.17;94.50;100639.38;4819442;28;20059;-59
2022/12/26 08:41:36;;;;;;;3.35;1.15;;;;;;;-2.06;93.72;100646.63;4846479;28;20304;-60
2022/12/26 08:44:19;;;;;;;4.65;1.55;;;;;;;-1.99;93.68;100648.63;4843390;28;20099;-59
2022/12/26 08:47:13;;;;;;;8.88;2.00;;;;;;;-1.97;93.67;100647.88;4841048;28;20047;-59
2022/12/26 08:50:06;;;;;;;2.35;1.20;;;;;;;-1.96;93.16;100653.84;4846937;28;20049;-60
2022/12/26 08:55:39;;;;;;;4.03;1.10;;;;;;;-1.92;92.38;100659.97;4848402;28;20874;-60
2022/12/26 08:58:20;;;;;;;7.50;1.50;;;;;;;-1.86;92.36;100655.97;4854965;28;20050;-58
2022/12/26 09:01:03;;;;;;;4.13;0.93;;;;;;;-1.84;91.51;100666.28;4824488;28;20547;-58
2022/12/26 09:03:48;;;;;;;3.40;1.13;;;;;;;-2.40;91.43;100563.31;4851713;28;20347;-60
2022/12/26 09:06:47;;;;;;;7.60;0.98;;;;;;;-1.80;91.81;100668.13;4807324;28;20053;-59
2022/12/26 09:09:39;;;;;;;5.55;1.60;;;;;;;-1.78;91.65;100664.81;4844523;28;20050;-58
2022/12/26 09:12:20;;;;;;;3.83;1.23;;;;;;;-1.79;91.39;100673.34;4820743;28;20268;-60
2022/12/26 09:15:20;;;;;;;5.35;1.08;;;;;;;-1.79;91.86;100670.78;4867865;28;20053;-60
2022/12/26 09:18:09;;;;;;;4.70;1.20;;;;;;;-1.79;91.46;100678.47;4863357;28;20080;-58
2022/12/26 09:20:51;;;;;;;4.53;1.00;;;;;;;-1.77;91.50;100681.97;4828897;28;20057;-59
2022/12/26 09:23:30;;;;;;;3.25;1.23;;;;;;;-1.83;91.34;100671.44;4854331;28;20064;-58
2022/12/26 09:26:26;;;;;;;5.53;1.30;;;;;;;-1.77;91.66;100676.84;4817507;28;20304;-59
2022/12/26 09:29:12;;;;;;;1.83;1.00;;;;;;;-1.81;91.89;100680.06;4860695;28;20042;-60
2022/12/26 09:35:26;;;;;;;5.70;1.38;;;;;;;-1.80;91.82;100692.09;4856930;28;20086;-60
2022/12/26 09:38:09;;;;;;;4.97;2.00;;;;;;;-1.78;91.51;100690.44;4853274;28;20629;-59
2022/12/26 09:41:07;;;;;;;4.45;1.27;;;;;;;-1.76;91.40;100693.94;4849395;28;20046;-59
2022/12/26 09:44:12;;;;;;;5.15;1.00;;;;;;;-1.78;91.66;100699.81;4858769;28;20058;-60
2022/12/26 09:47:05;;;;;;;3.05;1.17;;;;;;;-2.10;91.36;100649.84;4832692;28;20052;-59
2022/12/26 09:50:00;;;;;;;6.70;1.35;;;;;;;-1.80;91.51;100697.22;4869331;28;20123;-60
2022/12/26 09:52:55;;;;;;;3.45;1.30;;;;;;;-1.83;91.18;100697.06;4842526;28;20045;-60
2022/12/26 09:55:48;;;;;;;4.00;1.48;;;;;;;-1.80;91.86;100704.00;4848207;28;20388;-59
2022/12/26 10:02:00;;;;;;;3.13;0.90;;;;;;;-1.81;92.18;100703.13;4821302;28;20053;-61
2022/12/26 10:04:47;;;;;;;12.60;1.20;;;;;;;-1.81;92.44;100709.94;4869238;28;20051;-60
2022/12/26 10:08:02;;;;;;;2.97;1.00;;;;;;;-2.39;92.34;100616.28;4855601;28;20049;-61
2022/12/26 10:10:52;;;;;;;2.88;1.25;;;;;;;-1.82;92.29;100714.19;4830994;28;20053;-61
2022/12/26 10:13:42;;;;;;;3.05;0.93;;;;;;;-1.83;92.49;100712.44;4790533;28;20106;-61
2022/12/26 10:16:22;;;;;;;1.23;0.98;;;;;;;-1.88;92.74;100698.56;4863557;28;20042;-60
2022/12/26 10:19:33;;;;;;;5.85;1.30;;;;;;;-1.84;92.85;100705.56;4845897;28;20436;-60
2022/12/26 10:22:48;;;;;;;2.78;1.60;;;;;;;-1.84;91.79;100705.56;4845279;28;20046;-61
2022/12/26 10:26:11;;;;;;;3.70;0.90;;;;;;;-1.82;91.76;100716.75;4827602;28;20057;-61
2022/12/26 10:29:06;;;;;;;3.42;1.30;;;;;;;-1.89;92.09;100707.06;4788177;28;20074;-60
2022/12/26 10:31:53;;;;;;;7.15;1.10;;;;;;;-2.58;91.82;100593.28;4832499;28;20043;-61
2022/12/26 10:34:55;;;;;;;3.97;0.90;;;;;;;-1.84;92.08;100725.19;4831290;28;20039;-60
2022/12/26 10:37:41;;;;;;;5.20;1.00;;;;;;;-1.85;92.34;100723.44;4864856;28;20046;-61
2022/12/26 10:41:07;;;;;;;3.50;1.10;;;;;;;-1.88;92.21;100729.31;4850160;28;20283;-60
2022/12/26 10:43:47;;;;;;;2.70;1.00;;;;;;;-1.84;92.08;100726.06;4866735;28;20064;-61
2022/12/26 10:47:49;;;;;;;1.98;1.00;;;;;;;-1.87;92.13;100725.94;4848866;28;20268;-61
2022/12/26 10:50:56;;;;;;;4.53;1.00;;;;;;;-1.85;92.24;100723.44;4764908;29;20148;-61
2022/12/26 10:53:56;;;;;;;2.80;1.25;;;;;;;-1.88;92.46;100711.38;4767366;29;20053;-62
2022/12/26 10:56:37;;;;;;;3.78;1.00;;;;;;;-1.94;92.81;100723.94;4754457;29;20052;-61
2022/12/26 10:59:39;;;;;;;3.47;1.45;;;;;;;-1.89;92.80;100727.56;4753285;29;20084;-60
2022/12/26 11:02:34;;;;;;;3.28;1.00;;;;;;;-1.90;93.27;100725.78;4804997;29;20088;-61
2022/12/26 11:05:25;;;;;;;3.90;1.00;;;;;;;-1.96;93.50;100712.75;4786838;29;20047;-61
2022/12/26 11:08:37;;;;;;;2.58;0.80;;;;;;;-1.98;94.46;100724.63;4776653;29;20202;-60
2022/12/26 11:14:52;;;;;;;7.43;2.13;;;;;;;-1.95;94.94;100737.53;4791287;29;20039;-61
2022/12/26 11:17:46;;;;;;;1.00;0.90;;;;;;;-2.59;94.81;100637.59;4680170;29;20045;-60
2022/12/26 11:20:49;;;;;;;1.45;1.10;;;;;;;-2.01;94.38;100737.31;4731052;29;20049;-60
2022/12/26 11:23:58;;;;;;;9.75;1.05;;;;;;;-1.96;94.41;100740.94;4772590;29;20185;-59
2022/12/26 11:26:51;;;;;;;6.55;1.30;;;;;;;-1.97;94.79;100740.06;4752369;29;20063;-60
2022/12/26 11:29:41;;;;;;;;;;;;;;;;;;;;;
2022/12/26 11:32:21;;;;;;;1.55;1.00;;;;;;;-1.94;94.64;100739.31;4723933;29;20051;-60
2022/12/26 11:35:08;;;;;;;2.17;1.20;;;;;;;-1.92;94.58;100753.06;4755791;29;20107;-59
2022/12/26 11:38:01;;;;;;;4.38;1.17;;;;;;;-2.02;94.51;100735.53;4748229;29;20096;-59
2022/12/26 11:43:48;;;;;;;2.25;0.98;;;;;;;-1.92;94.89;100753.06;4780676;29;20104;-59
2022/12/26 11:49:28;;;;;;;4.75;1.20;;;;;;;-1.88;95.75;100761.72;4760888;29;20069;-60
2022/12/26 11:52:28;;;;;;;3.53;0.90;;;;;;;-2.57;95.51;100667.56;4779441;28;20041;-59
2022/12/26 11:55:45;;;;;;;5.18;1.20;;;;;;;-1.93;95.93;100761.53;4845127;28;20038;-59
2022/12/26 11:58:31;;;;;;;7.07;1.10;;;;;;;-2.01;95.52;100753.53;4831285;28;20110;-59
2022/12/26 12:01:28;;;;;;;3.60;1.10;;;;;;;-1.96;95.78;100764.84;4870358;28;20055;-59
2022/12/26 12:04:19;;;;;;;4.15;1.20;;;;;;;-1.99;95.74;100758.72;4828396;28;20334;-59
2022/12/26 12:07:17;;;;;;;2.63;1.15;;;;;;;-1.99;96.41;100767.28;4860901;28;20063;-59
2022/12/26 12:10:09;;;;;;;7.18;1.02;;;;;;;-2.02;96.96;100761.13;4831107;28;20060;-59
2022/12/26 12:12:58;;;;;;;3.03;1.02;;;;;;;-2.04;96.90;100752.53;4827820;28;20071;-59
2022/12/26 12:15:47;;;;;;;3.75;0.93;;;;;;;-2.05;97.17;100761.00;4819130;28;20101;-57
2022/12/26 12:18:57;;;;;;;4.90;0.90;;;;;;;-2.04;96.54;100762.78;4844397;28;20084;-59
2022/12/26 12:21:58;;;;;;;1.95;1.05;;;;;;;-2.04;96.20;100762.78;4835116;28;20080;-58
2022/12/26 12:24:47;;;;;;;2.80;1.17;;;;;;;-2.04;95.68;100757.66;4798543;28;20090;-59
2022/12/26 12:27:31;;;;;;;2.20;1.08;;;;;;;-2.37;95.59;100706.78;4831657;28;20055;-58
2022/12/26 12:30:27;;;;;;;3.58;1.15;;;;;;;-2.06;94.97;100764.41;4855086;28;20144;-58
2022/12/26 12:33:52;;;;;;;3.45;1.10;;;;;;;-2.09;94.64;100754.03;4856581;28;20051;-58
2022/12/26 12:40:18;;;;;;;4.88;0.95;;;;;;;-2.11;95.17;100765.91;4823692;28;20055;-59
2022/12/26 12:43:18;;;;;;;3.58;1.10;;;;;;;-2.15;95.10;100764.00;4810784;28;20054;-59
2022/12/26 12:46:01;;;;;;;1.15;0.85;;;;;;;-2.11;95.42;100760.78;4825814;28;20042;-60
2022/12/26 12:49:08;;;;;;;2.10;1.00;;;;;;;-2.13;95.40;100757.25;4825438;28;20057;-60
2022/12/26 12:51:56;;;;;;;3.25;1.10;;;;;;;-2.17;94.71;100762.25;4823646;28;20232;-60
2022/12/26 12:54:58;;;;;;;1.10;0.90;;;;;;;-2.23;94.97;100756.00;4836616;28;20047;-61
2022/12/26 12:57:52;;;;;;;1.65;1.00;;;;;;;-2.17;94.57;100767.38;4827752;28;20330;-61
2022/12/26 13:00:51;;;;;;;1.48;0.90;;;;;;;-2.23;93.45;100758.56;4767874;29;20108;-60
2022/12/26 13:03:42;;;;;;;;;;;;;;;-2.20;93.29;100762.13;4772285;28;20262;-60
2022/12/26 13:06:29;;;;;;;3.55;1.00;;;;;;;-2.19;93.13;100771.56;4824245;28;19941;-60
2022/12/26 13:09:19;;;;;;;1.80;0.90;;;;;;;-2.22;92.85;100779.09;4831949;28;20102;-60
2022/12/26 13:12:02;;;;;;;3.15;1.13;;;;;;;-2.31;92.96;100765.91;4798044;28;20046;-60
2022/12/26 13:14:55;;;;;;;3.80;1.27;;;;;;;-2.29;92.93;100787.34;4825049;28;20050;-60
2022/12/26 13:17:34;;;;;;;2.92;1.10;;;;;;;-2.34;92.92;100786.25;4837968;28;20192;-60
2022/12/26 13:20:35;;;;;;;1.52;0.95;;;;;;;-2.41;92.99;100776.56;4781888;28;20481;-60
2022/12/26 13:29:23;;;;;;;2.40;1.10;;;;;;;-2.33;92.76;100788.00;4846369;28;20050;-59
2022/12/26 13:32:01;;;;;;;2.70;0.90;;;;;;;-2.30;92.71;100800.03;4837640;28;20115;-59
2022/12/26 13:34:47;;;;;;;2.58;0.90;;;;;;;-2.29;92.80;100797.56;4871527;28;20046;-61
2022/12/26 13:37:57;;;;;;;2.83;0.80;;;;;;;-2.28;92.58;100794.19;4829344;28;20054;-60
2022/12/26 13:40:47;;;;;;;3.42;1.05;;;;;;;-2.27;92.43;100801.06;4810926;28;20062;-61
2022/12/26 13:46:57;;;;;;;2.42;1.33;;;;;;;-2.27;91.71;100795.97;4773780;29;20059;-60
2022/12/26 13:49:41;;;;;;;3.28;1.00;;;;;;;-2.26;91.95;100797.69;4825410;28;20105;-60
2022/12/26 13:52:45;;;;;;;3.72;0.90;;;;;;;-2.26;91.63;100797.69;4811466;28;20106;-60
2022/12/26 13:55:41;;;;;;;2.28;1.17;;;;;;;-2.30;91.15;100800.03;4813079;28;20043;-60
2022/12/26 13:59:07;;;;;;;3.80;1.10;;;;;;;-2.34;91.46;100788.81;4847590;28;20055;-60
2022/12/26 14:01:58;;;;;;;1.30;1.20;;;;;;;-2.35;91.30;100787.03;4836420;28;20390;-60
2022/12/26 14:05:01;;;;;;;1.35;0.90;;;;;;;-2.35;91.73;100792.16;4783507;29;20251;-60
2022/12/26 14:08:02;;;;;;;0.75;0.75;;;;;;;-2.36;91.80;100787.88;4789035;28;20039;-61
2022/12/26 14:10:57;;;;;;;5.05;1.00;;;;;;;-2.41;91.60;100776.56;4812508;28;20108;-61
2022/12/26 14:13:52;;;;;;;1.45;0.90;;;;;;;-2.37;91.66;100788.69;4848945;28;20039;-59
2022/12/26 14:16:51;;;;;;;2.83;1.00;;;;;;;-2.38;92.02;100784.34;4807356;28;20040;-59
2022/12/26 14:19:44;;;;;;;0.75;0.75;;;;;;;-3.16;92.15;100659.00;4849181;28;20069;-60
2022/12/26 14:22:38;;;;;;;1.55;1.00;;;;;;;-2.43;91.98;100794.38;4819356;28;20042;-59
2022/12/26 14:25:31;;;;;;;0.85;0.70;;;;;;;-2.40;91.67;100789.44;4839515;28;20042;-60
2022/12/26 14:28:40;;;;;;;3.67;1.10;;;;;;;-2.42;91.33;100779.91;4851940;28;20070;-60
2022/12/26 14:31:34;;;;;;;1.88;0.80;;;;;;;-2.33;91.12;100785.44;4836148;28;20334;-60
2022/12/26 14:35:01;;;;;;;3.50;0.90;;;;;;;-2.30;90.27;100790.69;4833871;28;20405;-59
2022/12/26 14:38:04;;;;;;;2.63;0.80;;;;;;;-2.60;90.56;100733.91;4838918;28;20048;-59
2022/12/26 14:41:03;;;;;;;4.28;0.95;;;;;;;-2.29;91.17;100792.44;4867915;28;20051;-59
2022/12/26 14:43:48;;;;;;;3.33;1.23;;;;;;;-2.32;91.35;100796.53;4799969;28;20056;-59
2022/12/26 14:47:09;;;;;;;3.75;1.08;;;;;;;-2.36;91.86;100795.53;4839287;28;20092;-59
2022/12/26 14:50:02;;;;;;;2.50;1.02;;;;;;;-2.36;92.26;100795.53;4845068;28;20114;-59
2022/12/26 14:52:48;;;;;;;5.15;1.10;;;;;;;-2.37;92.27;100798.94;4796295;28;20050;-60
2022/12/26 14:55:56;;;;;;;2.72;1.00;;;;;;;-2.38;92.23;100792.03;4836667;28;20069;-59
2022/12/26 14:58:50;;;;;;;2.85;0.98;;;;;;;-2.39;92.47;100795.41;4808421;28;20093;-59
2022/12/26 15:02:00;;;;;;;1.40;1.02;;;;;;;-2.38;92.17;100792.03;4854468;28;20116;-60
2022/12/26 15:05:11;;;;;;;4.00;1.10;;;;;;;-2.62;92.43;100741.53;4812243;28;20101;-59
2022/12/26 15:08:04;;;;;;;;;;;;;;;-2.35;92.24;100792.16;4863277;28;20038;-59
2022/12/26 15:11:42;;;;;;;1.77;0.95;;;;;;;-2.35;92.11;100796.41;4825599;28;19944;-59
2022/12/26 15:15:05;;;;;;;1.98;0.90;;;;;;;-2.39;91.67;100795.41;4808790;28;20042;-59
2022/12/26 15:17:56;;;;;;;4.70;1.15;;;;;;;-2.41;91.28;100786.78;4804157;28;20043;-59
2022/12/26 15:21:26;;;;;;;5.15;1.10;;;;;;;-2.50;91.41;100776.13;4807147;28;20324;-60
2022/12/26 15:24:40;;;;;;;2.65;0.90;;;;;;;-2.48;91.23;100784.75;4796258;28;20054;-59
2022/12/26 15:28:28;;;;;;;2.08;0.90;;;;;;;-2.43;91.72;100793.50;4827311;28;20074;-58
2022/12/26 15:31:36;;;;;;;1.25;0.80;;;;;;;-2.39;91.54;100795.41;4795906;28;20093;-59
2022/12/26 15:34:54;;;;;;;2.35;0.90;;;;;;;-2.51;91.09;100774.41;4862628;28;20117;-59
2022/12/26 15:38:18;;;;;;;4.95;1.23;;;;;;;-2.38;91.44;100804.84;4863061;28;20105;-59
2022/12/26 15:41:14;;;;;;;3.63;1.02;;;;;;;-2.43;92.30;100803.75;4841244;28;20042;-59
2022/12/26 15:44:17;;;;;;;2.67;1.05;;;;;;;-2.44;93.24;100812.25;4845002;28;20051;-59
2022/12/26 15:47:03;;;;;;;6.90;1.10;;;;;;;-2.47;93.71;100818.09;4841668;28;20342;-60
2022/12/26 15:49:59;;;;;;;3.25;0.98;;;;;;;-2.53;93.97;100807.56;4830774;28;20065;-60
2022/12/26 15:53:17;;;;;;;2.85;1.77;;;;;;;-2.48;94.55;100820.59;4839252;28;20475;-59
2022/12/26 15:56:22;;;;;;;2.63;0.98;;;;;;;-2.49;94.80;100813.72;4846749;28;20046;-59
2022/12/26 15:59:32;;;;;;;3.60;1.17;;;;;;;-2.45;95.24;100825.84;4854980;28;20050;-59
2022/12/26 16:02:11;;;;;;;4.55;1.02;;;;;;;-2.41;95.47;100823.47;4854980;28;20043;-59
2022/12/26 16:04:57;;;;;;;3.53;1.20;;;;;;;-2.43;95.61;100829.34;4833569;28;20038;-60
2022/12/26 16:07:41;;;;;;;1.15;1.00;;;;;;;-2.49;95.61;100832.50;4784709;28;20047;-60
2022/12/26 16:10:36;;;;;;;3.78;1.20;;;;;;;-2.54;96.12;100831.44;4845665;28;20531;-59
2022/12/26 16:13:46;;;;;;;3.92;1.10;;;;;;;-2.53;96.89;100842.53;4838428;28;20090;-60
2022/12/26 16:16:36;;;;;;;6.25;1.05;;;;;;;-2.83;97.82;100796.81;4846976;28;20046;-59
2022/12/26 16:19:25;;;;;;;5.38;1.20;;;;;;;-2.55;98.19;100854.38;4862197;28;20094;-59
2022/12/26 16:22:49;;;;;;;4.20;1.30;;;;;;;-2.55;98.35;100849.25;4812894;28;20046;-59
2022/12/26 16:25:33;;;;;;;7.65;1.10;;;;;;;-2.64;98.80;100839.50;4852143;28;20055;-59
2022/12/26 16:28:32;;;;;;;5.35;1.00;;;;;;;-2.54;99.14;100861.25;4829025;28;20277;-59
2022/12/26 16:31:19;;;;;;;3.33;1.42;;;;;;;-2.58;99.42;100864.47;4802818;28;20051;-59
2022/12/26 16:34:13;;;;;;;6.45;1.33;;;;;;;-2.62;100.00;100861.78;4820359;28;20064;-59
2022/12/26 16:36:56;;;;;;;7.28;1.30;;;;;;;-2.63;99.92;100862.56;4858264;28;20050;-59
2022/12/26 16:39:34;;;;;;;3.97;1.70;;;;;;;-2.61;99.87;100863.53;4806582;28;20487;-59
2022/12/26 16:42:33;;;;;;;5.57;1.20;;;;;;;-2.61;99.49;100868.63;4821511;28;20114;-59
2022/12/26 16:45:26;;;;;;;1.67;1.00;;;;;;;-3.27;99.51;100753.06;4809759;28;20073;-60
2022/12/26 16:48:13;;;;;;;3.55;1.40;;;;;;;-3.07;99.08;100796.56;4849587;28;20168;-59
2022/12/26 16:51:05;;;;;;;2.70;1.10;;;;;;;-2.64;99.11;100873.63;4841419;28;20155;-59
2022/12/26 16:54:29;;;;;;;4.60;1.35;;;;;;;-2.85;99.02;100841.91;4843277;28;20050;-60
2022/12/26 16:57:23;;;;;;;6.50;1.67;;;;;;;-2.58;99.22;100883.25;4808771;28;20529;-59
2022/12/26 17:00:25;;;;;;;7.65;1.35;;;;;;;-2.56;99.21;100893.56;4844892;28;20054;-57
2022/12/26 17:03:14;;;;;;;7.63;1.25;;;;;;;-2.61;99.31;100891.66;4777198;28;20106;-59
2022/12/26 17:05:51;;;;;;;7.63;1.50;;;;;;;-2.62;99.40;100894.16;4825083;28;20103;-59
2022/12/26 17:08:45;;;;;;;6.15;1.23;;;;;;;-2.64;99.37;100896.66;4821740;28;20050;-59
2022/12/26 17:11:42;;;;;;;3.90;1.30;;;;;;;-2.63;99.75;100888.16;4852499;28;20229;-59
2022/12/26 17:14:24;;;;;;;9.80;1.65;;;;;;;-2.61;99.53;100891.66;4855091;28;20042;-59
2022/12/26 17:17:37;;;;;;;8.20;1.30;;;;;;;-2.70;99.72;100881.00;4844517;28;20106;-60
2022/12/26 17:20:48;;;;;;;5.97;1.55;;;;;;;-2.60;99.39;100892.53;4830945;28;20046;-59
2022/12/26 17:24:05;;;;;;;3.58;1.30;;;;;;;-2.61;99.35;100889.09;4810745;28;20050;-60
2022/12/26 17:27:18;;;;;;;6.25;1.70;;;;;;;-2.63;99.29;100893.25;4811494;28;20078;-60
2022/12/26 17:29:57;;;;;;;6.05;1.40;;;;;;;-2.68;98.30;100876.81;4834285;28;20362;-59
2022/12/26 17:33:00;;;;;;;3.17;1.10;;;;;;;-2.63;97.55;100883.03;4832642;28;20054;-59
2022/12/26 17:35:48;;;;;;;4.38;1.00;;;;;;;-2.61;96.74;100901.91;4844783;28;20046;-58
2022/12/26 17:38:51;;;;;;;2.55;1.00;;;;;;;-2.66;96.03;100882.91;4835575;28;20334;-58
2022/12/26 17:41:36;;;;;;;1.80;1.08;;;;;;;-2.57;96.09;100897.81;4845251;28;20069;-60
2022/12/26 17:44:39;;;;;;;2.28;1.15;;;;;;;-2.56;95.94;100899.56;4836119;28;20101;-59
2022/12/26 17:51:03;;;;;;;2.92;1.38;;;;;;;-2.68;96.22;100894.72;4787462;28;20038;-59
2022/12/26 17:53:44;;;;;;;;;;;;;;;-2.72;96.75;100902.19;4844139;28;20120;-59
2022/12/26 18:00:17;;;;;;;3.05;1.40;;;;;;;-2.77;97.17;100902.00;4848483;28;20038;-60